sensor_id;sensor_type;location;lat;lon;timestamp;P1;durP1;ratioP1;P2;durP2;ratioP2
14722;SDS011;7452;55.594;12.986;2023-04-06T00:00:31;7.80;;;5.70;;
14722;SDS011;7452;55.594;12.986;2023-04-06T00:02:58;7.37;;;5.20;;
14722;SDS011;7452;55.594;12.986;2023-04-06T00:05:25;7.57;;;4.97;;
14722;SDS011;7452;55.594;12.986;2023-04-06T00:07:53;7.00;;;5.43;;
14722;SDS011;7452;55.594;12.986;2023-04-06T00:10:21;7.63;;;5.13;;
14722;SDS011;7452;55.594;12.986;2023-04-06T00:12:49;8.23;;;5.17;;
14722;SDS011;7452;55.594;12.986;2023-04-06T00:15:16;6.50;;;5.03;;
14722;SDS011;7452;55.594;12.986;2023-04-06T00:17:43;8.17;;;5.40;;
14722;SDS011;7452;55.594;12.986;2023-04-06T00:20:10;7.80;;;5.53;;
14722;SDS011;7452;55.594;12.986;2023-04-06T00:22:37;7.07;;;5.17;;
14722;SDS011;7452;55.594;12.986;2023-04-06T00:25:04;8.07;;;5.17;;
14722;SDS011;7452;55.594;12.986;2023-04-06T00:27:31;9.17;;;5.20;;
14722;SDS011;7452;55.594;12.986;2023-04-06T00:30:00;7.77;;;5.20;;
14722;SDS011;7452;55.594;12.986;2023-04-06T00:32:27;7.33;;;4.97;;
14722;SDS011;7452;55.594;12.986;2023-04-06T00:34:53;7.90;;;5.20;;
14722;SDS011;7452;55.594;12.986;2023-04-06T00:37:20;7.07;;;4.50;;
14722;SDS011;7452;55.594;12.986;2023-04-06T00:39:47;5.83;;;4.20;;
14722;SDS011;7452;55.594;12.986;2023-04-06T00:42:16;5.67;;;3.70;;
14722;SDS011;7452;55.594;12.986;2023-04-06T00:44:50;4.33;;;3.67;;
14722;SDS011;7452;55.594;12.986;2023-04-06T00:47:18;7.00;;;3.87;;
14722;SDS011;7452;55.594;12.986;2023-04-06T00:49:45;6.53;;;3.73;;
14722;SDS011;7452;55.594;12.986;2023-04-06T00:52:12;5.63;;;4.07;;
14722;SDS011;7452;55.594;12.986;2023-04-06T00:54:41;6.27;;;4.00;;
14722;SDS011;7452;55.594;12.986;2023-04-06T00:57:08;6.20;;;4.07;;
14722;SDS011;7452;55.594;12.986;2023-04-06T00:59:35;6.30;;;4.00;;
14722;SDS011;7452;55.594;12.986;2023-04-06T01:02:02;6.33;;;3.80;;
14722;SDS011;7452;55.594;12.986;2023-04-06T01:04:31;5.53;;;4.10;;
14722;SDS011;7452;55.594;12.986;2023-04-06T01:06:58;5.47;;;3.90;;
14722;SDS011;7452;55.594;12.986;2023-04-06T01:09:27;6.80;;;4.80;;
14722;SDS011;7452;55.594;12.986;2023-04-06T01:11:54;6.43;;;4.73;;
14722;SDS011;7452;55.594;12.986;2023-04-06T01:14:21;7.77;;;5.47;;
14722;SDS011;7452;55.594;12.986;2023-04-06T01:16:49;9.90;;;6.43;;
14722;SDS011;7452;55.594;12.986;2023-04-06T01:19:16;8.60;;;7.07;;
14722;SDS011;7452;55.594;12.986;2023-04-06T01:21:44;9.23;;;7.40;;
14722;SDS011;7452;55.594;12.986;2023-04-06T01:24:13;10.77;;;7.53;;
14722;SDS011;7452;55.594;12.986;2023-04-06T01:26:40;9.27;;;7.63;;
14722;SDS011;7452;55.594;12.986;2023-04-06T01:29:07;11.47;;;8.33;;
14722;SDS011;7452;55.594;12.986;2023-04-06T01:31:34;10.60;;;8.13;;
14722;SDS011;7452;55.594;12.986;2023-04-06T01:34:01;10.67;;;8.33;;
14722;SDS011;7452;55.594;12.986;2023-04-06T01:36:28;13.43;;;8.60;;
14722;SDS011;7452;55.594;12.986;2023-04-06T01:38:55;11.40;;;8.30;;
14722;SDS011;7452;55.594;12.986;2023-04-06T01:41:24;9.67;;;8.13;;
14722;SDS011;7452;55.594;12.986;2023-04-06T01:43:51;12.07;;;8.27;;
14722;SDS011;7452;55.594;12.986;2023-04-06T01:46:19;8.90;;;7.70;;
14722;SDS011;7452;55.594;12.986;2023-04-06T01:48:46;11.17;;;7.77;;
14722;SDS011;7452;55.594;12.986;2023-04-06T01:51:13;10.07;;;7.90;;
14722;SDS011;7452;55.594;12.986;2023-04-06T01:53:40;9.47;;;7.60;;
14722;SDS011;7452;55.594;12.986;2023-04-06T01:56:07;10.67;;;8.00;;
14722;SDS011;7452;55.594;12.986;2023-04-06T01:58:36;9.70;;;8.00;;
14722;SDS011;7452;55.594;12.986;2023-04-06T02:01:03;8.83;;;7.73;;
14722;SDS011;7452;55.594;12.986;2023-04-06T02:03:30;10.47;;;8.20;;
14722;SDS011;7452;55.594;12.986;2023-04-06T02:05:57;14.17;;;8.33;;
14722;SDS011;7452;55.594;12.986;2023-04-06T02:08:23;10.50;;;7.83;;
14722;SDS011;7452;55.594;12.986;2023-04-06T02:10:50;9.80;;;7.77;;
14722;SDS011;7452;55.594;12.986;2023-04-06T02:13:18;9.10;;;7.57;;
14722;SDS011;7452;55.594;12.986;2023-04-06T02:15:46;9.30;;;7.17;;
14722;SDS011;7452;55.594;12.986;2023-04-06T02:18:13;9.60;;;8.23;;
14722;SDS011;7452;55.594;12.986;2023-04-06T02:20:40;9.80;;;7.07;;
14722;SDS011;7452;55.594;12.986;2023-04-06T02:23:07;9.73;;;7.13;;
14722;SDS011;7452;55.594;12.986;2023-04-06T02:25:34;10.87;;;7.20;;
14722;SDS011;7452;55.594;12.986;2023-04-06T02:28:01;7.53;;;6.63;;
14722;SDS011;7452;55.594;12.986;2023-04-06T02:30:28;9.23;;;6.17;;
14722;SDS011;7452;55.594;12.986;2023-04-06T02:32:58;7.17;;;5.73;;
14722;SDS011;7452;55.594;12.986;2023-04-06T02:35:25;7.63;;;5.80;;
14722;SDS011;7452;55.594;12.986;2023-04-06T02:37:53;6.33;;;5.47;;
14722;SDS011;7452;55.594;12.986;2023-04-06T02:40:20;7.67;;;5.53;;
14722;SDS011;7452;55.594;12.986;2023-04-06T02:42:47;8.27;;;5.40;;
14722;SDS011;7452;55.594;12.986;2023-04-06T02:45:15;7.40;;;5.63;;
14722;SDS011;7452;55.594;12.986;2023-04-06T02:47:42;6.80;;;5.13;;
14722;SDS011;7452;55.594;12.986;2023-04-06T02:50:10;8.77;;;5.70;;
14722;SDS011;7452;55.594;12.986;2023-04-06T02:52:37;7.63;;;5.53;;
14722;SDS011;7452;55.594;12.986;2023-04-06T02:55:05;7.07;;;5.27;;
14722;SDS011;7452;55.594;12.986;2023-04-06T02:57:32;8.23;;;6.17;;
14722;SDS011;7452;55.594;12.986;2023-04-06T02:59:59;8.87;;;6.03;;
14722;SDS011;7452;55.594;12.986;2023-04-06T03:02:26;8.73;;;6.20;;
14722;SDS011;7452;55.594;12.986;2023-04-06T03:04:53;9.90;;;6.60;;
14722;SDS011;7452;55.594;12.986;2023-04-06T03:07:21;7.60;;;6.53;;
14722;SDS011;7452;55.594;12.986;2023-04-06T03:09:49;8.23;;;6.53;;
14722;SDS011;7452;55.594;12.986;2023-04-06T03:12:16;8.37;;;6.70;;
14722;SDS011;7452;55.594;12.986;2023-04-06T03:14:43;9.27;;;6.13;;
14722;SDS011;7452;55.594;12.986;2023-04-06T03:17:10;11.70;;;6.30;;
14722;SDS011;7452;55.594;12.986;2023-04-06T03:19:37;10.07;;;6.60;;
14722;SDS011;7452;55.594;12.986;2023-04-06T03:22:04;8.57;;;6.27;;
14722;SDS011;7452;55.594;12.986;2023-04-06T03:24:32;7.27;;;5.93;;
14722;SDS011;7452;55.594;12.986;2023-04-06T03:27:02;8.53;;;5.50;;
14722;SDS011;7452;55.594;12.986;2023-04-06T03:29:29;8.87;;;4.90;;
14722;SDS011;7452;55.594;12.986;2023-04-06T03:31:57;7.83;;;5.40;;
14722;SDS011;7452;55.594;12.986;2023-04-06T03:34:23;8.17;;;4.90;;
14722;SDS011;7452;55.594;12.986;2023-04-06T03:36:50;7.10;;;4.90;;
14722;SDS011;7452;55.594;12.986;2023-04-06T03:39:17;6.60;;;4.30;;
14722;SDS011;7452;55.594;12.986;2023-04-06T03:41:45;7.77;;;4.13;;
14722;SDS011;7452;55.594;12.986;2023-04-06T03:44:12;4.50;;;3.67;;
14722;SDS011;7452;55.594;12.986;2023-04-06T03:46:39;6.67;;;4.20;;
14722;SDS011;7452;55.594;12.986;2023-04-06T03:49:06;6.97;;;3.90;;
14722;SDS011;7452;55.594;12.986;2023-04-06T03:51:34;5.23;;;4.00;;
14722;SDS011;7452;55.594;12.986;2023-04-06T03:54:01;5.57;;;3.40;;
14722;SDS011;7452;55.594;12.986;2023-04-06T03:56:28;5.93;;;3.70;;
14722;SDS011;7452;55.594;12.986;2023-04-06T03:58:56;6.20;;;3.90;;
14722;SDS011;7452;55.594;12.986;2023-04-06T04:01:26;4.47;;;3.47;;
14722;SDS011;7452;55.594;12.986;2023-04-06T04:03:53;5.20;;;3.37;;
14722;SDS011;7452;55.594;12.986;2023-04-06T04:06:20;4.33;;;3.23;;
14722;SDS011;7452;55.594;12.986;2023-04-06T04:08:47;4.80;;;3.67;;
14722;SDS011;7452;55.594;12.986;2023-04-06T04:11:14;5.83;;;3.87;;
14722;SDS011;7452;55.594;12.986;2023-04-06T04:13:41;5.33;;;3.30;;
14722;SDS011;7452;55.594;12.986;2023-04-06T04:16:10;5.57;;;3.50;;
14722;SDS011;7452;55.594;12.986;2023-04-06T04:18:37;5.63;;;3.50;;
14722;SDS011;7452;55.594;12.986;2023-04-06T04:21:04;4.87;;;3.63;;
14722;SDS011;7452;55.594;12.986;2023-04-06T04:23:30;3.63;;;3.30;;
14722;SDS011;7452;55.594;12.986;2023-04-06T04:25:58;5.90;;;3.53;;
14722;SDS011;7452;55.594;12.986;2023-04-06T04:28:24;6.33;;;3.53;;
14722;SDS011;7452;55.594;12.986;2023-04-06T04:30:51;9.37;;;3.50;;
14722;SDS011;7452;55.594;12.986;2023-04-06T04:33:20;7.67;;;4.00;;
14722;SDS011;7452;55.594;12.986;2023-04-06T04:35:47;4.57;;;3.30;;
14722;SDS011;7452;55.594;12.986;2023-04-06T04:38:13;7.93;;;3.93;;
14722;SDS011;7452;55.594;12.986;2023-04-06T04:40:40;6.73;;;3.40;;
14722;SDS011;7452;55.594;12.986;2023-04-06T04:43:07;4.10;;;3.40;;
14722;SDS011;7452;55.594;12.986;2023-04-06T04:45:34;4.77;;;3.33;;
14722;SDS011;7452;55.594;12.986;2023-04-06T04:48:01;7.27;;;4.00;;
14722;SDS011;7452;55.594;12.986;2023-04-06T04:50:31;5.20;;;3.30;;
14722;SDS011;7452;55.594;12.986;2023-04-06T04:53:00;5.13;;;3.37;;
14722;SDS011;7452;55.594;12.986;2023-04-06T04:55:27;6.40;;;3.40;;
14722;SDS011;7452;55.594;12.986;2023-04-06T04:57:54;7.43;;;3.23;;
14722;SDS011;7452;55.594;12.986;2023-04-06T05:00:21;5.30;;;3.27;;
14722;SDS011;7452;55.594;12.986;2023-04-06T05:02:48;4.60;;;3.13;;
14722;SDS011;7452;55.594;12.986;2023-04-06T05:05:15;4.63;;;3.03;;
14722;SDS011;7452;55.594;12.986;2023-04-06T05:07:43;4.13;;;2.93;;
14722;SDS011;7452;55.594;12.986;2023-04-06T05:10:10;5.73;;;2.93;;
14722;SDS011;7452;55.594;12.986;2023-04-06T05:12:37;4.70;;;2.47;;
14722;SDS011;7452;55.594;12.986;2023-04-06T05:15:04;6.20;;;2.70;;
14722;SDS011;7452;55.594;12.986;2023-04-06T05:17:32;5.83;;;2.90;;
14722;SDS011;7452;55.594;12.986;2023-04-06T05:20:00;7.40;;;3.17;;
14722;SDS011;7452;55.594;12.986;2023-04-06T05:22:28;3.40;;;2.33;;
14722;SDS011;7452;55.594;12.986;2023-04-06T05:24:56;6.87;;;2.40;;
14722;SDS011;7452;55.594;12.986;2023-04-06T05:27:23;6.10;;;2.70;;
14722;SDS011;7452;55.594;12.986;2023-04-06T05:29:51;5.00;;;2.47;;
14722;SDS011;7452;55.594;12.986;2023-04-06T05:32:18;6.87;;;2.77;;
14722;SDS011;7452;55.594;12.986;2023-04-06T05:34:47;3.70;;;2.07;;
14722;SDS011;7452;55.594;12.986;2023-04-06T05:37:14;3.33;;;2.43;;
14722;SDS011;7452;55.594;12.986;2023-04-06T05:39:41;4.50;;;2.03;;
14722;SDS011;7452;55.594;12.986;2023-04-06T05:42:09;6.50;;;2.20;;
14722;SDS011;7452;55.594;12.986;2023-04-06T05:44:37;3.33;;;2.20;;
14722;SDS011;7452;55.594;12.986;2023-04-06T05:47:04;6.10;;;2.40;;
14722;SDS011;7452;55.594;12.986;2023-04-06T05:49:31;4.50;;;2.20;;
14722;SDS011;7452;55.594;12.986;2023-04-06T05:51:58;4.63;;;2.00;;
14722;SDS011;7452;55.594;12.986;2023-04-06T05:54:25;3.37;;;2.17;;
14722;SDS011;7452;55.594;12.986;2023-04-06T05:56:52;4.87;;;2.00;;
14722;SDS011;7452;55.594;12.986;2023-04-06T05:59:20;6.50;;;2.00;;
14722;SDS011;7452;55.594;12.986;2023-04-06T06:01:48;3.53;;;1.93;;
14722;SDS011;7452;55.594;12.986;2023-04-06T06:04:15;2.00;;;1.73;;
14722;SDS011;7452;55.594;12.986;2023-04-06T06:06:42;3.73;;;2.07;;
14722;SDS011;7452;55.594;12.986;2023-04-06T06:09:09;3.60;;;1.90;;
14722;SDS011;7452;55.594;12.986;2023-04-06T06:11:36;3.53;;;2.27;;
14722;SDS011;7452;55.594;12.986;2023-04-06T06:14:03;3.97;;;1.80;;
14722;SDS011;7452;55.594;12.986;2023-04-06T06:16:32;3.47;;;1.90;;
14722;SDS011;7452;55.594;12.986;2023-04-06T06:18:58;6.00;;;2.20;;
14722;SDS011;7452;55.594;12.986;2023-04-06T06:21:26;2.30;;;1.90;;
14722;SDS011;7452;55.594;12.986;2023-04-06T06:23:52;3.97;;;2.17;;
14722;SDS011;7452;55.594;12.986;2023-04-06T06:26:22;3.53;;;1.97;;
14722;SDS011;7452;55.594;12.986;2023-04-06T06:28:49;4.00;;;2.50;;
14722;SDS011;7452;55.594;12.986;2023-04-06T06:31:15;5.57;;;2.13;;
14722;SDS011;7452;55.594;12.986;2023-04-06T06:33:46;3.70;;;1.77;;
14722;SDS011;7452;55.594;12.986;2023-04-06T06:36:16;4.07;;;2.07;;
14722;SDS011;7452;55.594;12.986;2023-04-06T06:38:43;5.60;;;2.03;;
14722;SDS011;7452;55.594;12.986;2023-04-06T06:41:11;4.97;;;2.30;;
14722;SDS011;7452;55.594;12.986;2023-04-06T06:43:38;2.23;;;2.00;;
14722;SDS011;7452;55.594;12.986;2023-04-06T06:46:05;2.47;;;1.73;;
14722;SDS011;7452;55.594;12.986;2023-04-06T06:48:32;3.83;;;1.70;;
14722;SDS011;7452;55.594;12.986;2023-04-06T06:51:00;5.27;;;2.07;;
14722;SDS011;7452;55.594;12.986;2023-04-06T06:53:27;6.47;;;2.27;;
14722;SDS011;7452;55.594;12.986;2023-04-06T06:55:54;3.63;;;2.00;;
14722;SDS011;7452;55.594;12.986;2023-04-06T06:58:21;3.50;;;2.03;;
14722;SDS011;7452;55.594;12.986;2023-04-06T07:00:48;3.13;;;2.00;;
14722;SDS011;7452;55.594;12.986;2023-04-06T07:03:15;2.43;;;1.90;;
14722;SDS011;7452;55.594;12.986;2023-04-06T07:05:45;3.27;;;2.00;;
14722;SDS011;7452;55.594;12.986;2023-04-06T07:08:16;3.30;;;2.10;;
14722;SDS011;7452;55.594;12.986;2023-04-06T07:10:43;6.70;;;1.97;;
14722;SDS011;7452;55.594;12.986;2023-04-06T07:13:10;2.50;;;2.07;;
14722;SDS011;7452;55.594;12.986;2023-04-06T07:15:37;2.50;;;1.73;;
14722;SDS011;7452;55.594;12.986;2023-04-06T07:18:04;3.80;;;2.13;;
14722;SDS011;7452;55.594;12.986;2023-04-06T07:20:31;3.80;;;2.40;;
14722;SDS011;7452;55.594;12.986;2023-04-06T07:22:58;3.70;;;1.93;;
14722;SDS011;7452;55.594;12.986;2023-04-06T07:25:26;3.53;;;1.97;;
14722;SDS011;7452;55.594;12.986;2023-04-06T07:27:53;3.67;;;2.40;;
14722;SDS011;7452;55.594;12.986;2023-04-06T07:30:21;4.47;;;1.90;;
14722;SDS011;7452;55.594;12.986;2023-04-06T07:32:50;3.50;;;1.90;;
14722;SDS011;7452;55.594;12.986;2023-04-06T07:35:17;4.37;;;2.00;;
14722;SDS011;7452;55.594;12.986;2023-04-06T07:37:43;3.17;;;2.20;;
14722;SDS011;7452;55.594;12.986;2023-04-06T07:40:10;4.97;;;2.20;;
14722;SDS011;7452;55.594;12.986;2023-04-06T07:42:39;2.57;;;1.70;;
14722;SDS011;7452;55.594;12.986;2023-04-06T07:45:06;5.37;;;2.07;;
14722;SDS011;7452;55.594;12.986;2023-04-06T07:47:33;3.53;;;1.80;;
14722;SDS011;7452;55.594;12.986;2023-04-06T07:50:01;2.97;;;1.83;;
14722;SDS011;7452;55.594;12.986;2023-04-06T07:52:28;2.83;;;2.00;;
14722;SDS011;7452;55.594;12.986;2023-04-06T07:54:55;3.87;;;1.90;;
14722;SDS011;7452;55.594;12.986;2023-04-06T07:57:22;3.07;;;1.60;;
14722;SDS011;7452;55.594;12.986;2023-04-06T07:59:50;3.43;;;1.60;;
14722;SDS011;7452;55.594;12.986;2023-04-06T08:02:17;3.90;;;2.13;;
14722;SDS011;7452;55.594;12.986;2023-04-06T08:04:44;3.77;;;1.93;;
14722;SDS011;7452;55.594;12.986;2023-04-06T08:07:11;3.90;;;1.90;;
14722;SDS011;7452;55.594;12.986;2023-04-06T08:09:38;5.40;;;1.93;;
14722;SDS011;7452;55.594;12.986;2023-04-06T08:12:05;3.70;;;1.97;;
14722;SDS011;7452;55.594;12.986;2023-04-06T08:14:32;4.87;;;1.77;;
14722;SDS011;7452;55.594;12.986;2023-04-06T08:17:01;3.37;;;1.70;;
14722;SDS011;7452;55.594;12.986;2023-04-06T08:19:28;3.40;;;1.60;;
14722;SDS011;7452;55.594;12.986;2023-04-06T08:21:55;3.57;;;1.77;;
14722;SDS011;7452;55.594;12.986;2023-04-06T08:24:22;3.30;;;1.60;;
14722;SDS011;7452;55.594;12.986;2023-04-06T08:26:49;2.73;;;1.50;;
14722;SDS011;7452;55.594;12.986;2023-04-06T08:29:17;3.00;;;1.73;;
14722;SDS011;7452;55.594;12.986;2023-04-06T08:31:44;4.73;;;1.57;;
14722;SDS011;7452;55.594;12.986;2023-04-06T08:34:12;2.90;;;1.73;;
14722;SDS011;7452;55.594;12.986;2023-04-06T08:36:39;3.53;;;1.90;;
14722;SDS011;7452;55.594;12.986;2023-04-06T08:39:06;3.13;;;1.33;;
14722;SDS011;7452;55.594;12.986;2023-04-06T08:41:33;2.43;;;1.40;;
14722;SDS011;7452;55.594;12.986;2023-04-06T08:44:01;1.80;;;1.47;;
14722;SDS011;7452;55.594;12.986;2023-04-06T08:46:30;3.27;;;1.50;;
14722;SDS011;7452;55.594;12.986;2023-04-06T08:48:57;2.17;;;1.60;;
14722;SDS011;7452;55.594;12.986;2023-04-06T08:51:26;4.07;;;1.90;;
14722;SDS011;7452;55.594;12.986;2023-04-06T08:53:55;4.40;;;1.90;;
14722;SDS011;7452;55.594;12.986;2023-04-06T08:56:23;1.93;;;1.73;;
14722;SDS011;7452;55.594;12.986;2023-04-06T08:58:51;3.23;;;1.83;;
14722;SDS011;7452;55.594;12.986;2023-04-06T09:01:20;2.07;;;1.50;;
14722;SDS011;7452;55.594;12.986;2023-04-06T09:03:49;4.73;;;2.03;;
14722;SDS011;7452;55.594;12.986;2023-04-06T09:06:17;3.73;;;1.60;;
14722;SDS011;7452;55.594;12.986;2023-04-06T09:08:46;3.70;;;1.90;;
14722;SDS011;7452;55.594;12.986;2023-04-06T09:11:14;8.50;;;3.03;;
14722;SDS011;7452;55.594;12.986;2023-04-06T09:13:44;4.40;;;2.03;;
14722;SDS011;7452;55.594;12.986;2023-04-06T09:16:12;3.83;;;2.23;;
14722;SDS011;7452;55.594;12.986;2023-04-06T09:18:39;3.37;;;2.13;;
14722;SDS011;7452;55.594;12.986;2023-04-06T09:21:07;4.23;;;2.10;;
14722;SDS011;7452;55.594;12.986;2023-04-06T09:23:36;4.33;;;2.17;;
14722;SDS011;7452;55.594;12.986;2023-04-06T09:26:09;5.90;;;2.50;;
14722;SDS011;7452;55.594;12.986;2023-04-06T09:28:46;3.30;;;2.23;;
14722;SDS011;7452;55.594;12.986;2023-04-06T09:31:14;3.50;;;2.00;;
14722;SDS011;7452;55.594;12.986;2023-04-06T09:33:43;6.90;;;2.43;;
14722;SDS011;7452;55.594;12.986;2023-04-06T09:36:10;3.73;;;2.50;;
14722;SDS011;7452;55.594;12.986;2023-04-06T09:38:50;4.50;;;2.37;;
14722;SDS011;7452;55.594;12.986;2023-04-06T09:41:24;3.37;;;2.57;;
14722;SDS011;7452;55.594;12.986;2023-04-06T09:43:52;3.97;;;2.77;;
14722;SDS011;7452;55.594;12.986;2023-04-06T09:46:29;4.03;;;3.00;;
14722;SDS011;7452;55.594;12.986;2023-04-06T09:48:59;4.13;;;3.00;;
14722;SDS011;7452;55.594;12.986;2023-04-06T09:51:28;5.03;;;2.97;;
14722;SDS011;7452;55.594;12.986;2023-04-06T09:53:56;4.60;;;2.90;;
14722;SDS011;7452;55.594;12.986;2023-04-06T09:56:31;4.47;;;2.83;;
14722;SDS011;7452;55.594;12.986;2023-04-06T09:59:05;21.83;;;4.23;;
14722;SDS011;7452;55.594;12.986;2023-04-06T10:01:38;5.67;;;3.30;;
14722;SDS011;7452;55.594;12.986;2023-04-06T10:04:09;6.00;;;3.50;;
14722;SDS011;7452;55.594;12.986;2023-04-06T10:06:47;6.63;;;3.30;;
14722;SDS011;7452;55.594;12.986;2023-04-06T10:09:17;4.67;;;3.23;;
14722;SDS011;7452;55.594;12.986;2023-04-06T10:11:48;4.00;;;3.50;;
14722;SDS011;7452;55.594;12.986;2023-04-06T10:14:15;3.97;;;2.90;;
14722;SDS011;7452;55.594;12.986;2023-04-06T10:16:42;4.70;;;3.03;;
14722;SDS011;7452;55.594;12.986;2023-04-06T10:19:12;5.33;;;3.27;;
14722;SDS011;7452;55.594;12.986;2023-04-06T10:21:42;5.33;;;3.80;;
14722;SDS011;7452;55.594;12.986;2023-04-06T10:24:14;4.23;;;3.30;;
14722;SDS011;7452;55.594;12.986;2023-04-06T10:26:42;5.60;;;3.57;;
14722;SDS011;7452;55.594;12.986;2023-04-06T10:29:10;4.03;;;2.90;;
14722;SDS011;7452;55.594;12.986;2023-04-06T10:31:39;6.77;;;3.67;;
14722;SDS011;7452;55.594;12.986;2023-04-06T10:34:09;4.67;;;3.40;;
14722;SDS011;7452;55.594;12.986;2023-04-06T10:36:36;3.67;;;3.20;;
14722;SDS011;7452;55.594;12.986;2023-04-06T10:39:04;7.40;;;3.70;;
14722;SDS011;7452;55.594;12.986;2023-04-06T10:41:32;4.97;;;4.13;;
14722;SDS011;7452;55.594;12.986;2023-04-06T10:44:00;4.43;;;4.00;;
14722;SDS011;7452;55.594;12.986;2023-04-06T10:46:30;4.53;;;3.43;;
14722;SDS011;7452;55.594;12.986;2023-04-06T10:48:58;6.80;;;3.83;;
14722;SDS011;7452;55.594;12.986;2023-04-06T10:51:37;6.47;;;4.00;;
14722;SDS011;7452;55.594;12.986;2023-04-06T10:54:05;4.93;;;4.43;;
14722;SDS011;7452;55.594;12.986;2023-04-06T10:56:32;5.93;;;4.67;;
14722;SDS011;7452;55.594;12.986;2023-04-06T10:59:03;6.17;;;4.50;;
14722;SDS011;7452;55.594;12.986;2023-04-06T11:01:33;5.23;;;4.43;;
14722;SDS011;7452;55.594;12.986;2023-04-06T11:04:00;7.27;;;4.70;;
14722;SDS011;7452;55.594;12.986;2023-04-06T11:06:28;7.23;;;5.00;;
14722;SDS011;7452;55.594;12.986;2023-04-06T11:08:57;8.80;;;4.97;;
14722;SDS011;7452;55.594;12.986;2023-04-06T11:11:25;6.30;;;4.80;;
14722;SDS011;7452;55.594;12.986;2023-04-06T11:13:53;6.60;;;5.17;;
14722;SDS011;7452;55.594;12.986;2023-04-06T11:16:21;7.77;;;5.10;;
14722;SDS011;7452;55.594;12.986;2023-04-06T11:18:51;7.03;;;5.50;;
14722;SDS011;7452;55.594;12.986;2023-04-06T11:21:20;5.57;;;4.67;;
14722;SDS011;7452;55.594;12.986;2023-04-06T11:24:03;5.83;;;4.87;;
14722;SDS011;7452;55.594;12.986;2023-04-06T11:26:31;5.50;;;4.77;;
14722;SDS011;7452;55.594;12.986;2023-04-06T11:29:02;6.07;;;4.63;;
14722;SDS011;7452;55.594;12.986;2023-04-06T11:31:29;4.80;;;4.30;;
14722;SDS011;7452;55.594;12.986;2023-04-06T11:33:58;5.10;;;4.60;;
14722;SDS011;7452;55.594;12.986;2023-04-06T11:36:26;5.20;;;4.10;;
14722;SDS011;7452;55.594;12.986;2023-04-06T11:38:55;6.80;;;4.60;;
14722;SDS011;7452;55.594;12.986;2023-04-06T11:41:23;5.63;;;4.90;;
14722;SDS011;7452;55.594;12.986;2023-04-06T11:43:55;7.00;;;4.70;;
14722;SDS011;7452;55.594;12.986;2023-04-06T11:46:22;7.47;;;4.73;;
14722;SDS011;7452;55.594;12.986;2023-04-06T11:48:51;5.10;;;4.37;;
14722;SDS011;7452;55.594;12.986;2023-04-06T11:51:28;5.50;;;4.63;;
14722;SDS011;7452;55.594;12.986;2023-04-06T11:53:55;5.40;;;4.37;;
14722;SDS011;7452;55.594;12.986;2023-04-06T11:56:22;6.27;;;4.70;;
14722;SDS011;7452;55.594;12.986;2023-04-06T11:58:50;6.30;;;4.50;;
14722;SDS011;7452;55.594;12.986;2023-04-06T12:01:17;3.93;;;3.63;;
14722;SDS011;7452;55.594;12.986;2023-04-06T12:03:44;5.30;;;4.33;;
14722;SDS011;7452;55.594;12.986;2023-04-06T12:06:11;6.67;;;4.40;;
14722;SDS011;7452;55.594;12.986;2023-04-06T12:08:39;5.60;;;4.27;;
14722;SDS011;7452;55.594;12.986;2023-04-06T12:11:06;5.33;;;4.60;;
14722;SDS011;7452;55.594;12.986;2023-04-06T12:13:33;5.47;;;4.93;;
14722;SDS011;7452;55.594;12.986;2023-04-06T12:16:00;7.87;;;5.40;;
14722;SDS011;7452;55.594;12.986;2023-04-06T12:18:27;6.83;;;5.23;;
14722;SDS011;7452;55.594;12.986;2023-04-06T12:20:55;5.97;;;5.10;;
14722;SDS011;7452;55.594;12.986;2023-04-06T12:23:22;6.63;;;4.93;;
14722;SDS011;7452;55.594;12.986;2023-04-06T12:25:50;7.83;;;5.60;;
14722;SDS011;7452;55.594;12.986;2023-04-06T12:28:17;5.80;;;5.03;;
14722;SDS011;7452;55.594;12.986;2023-04-06T12:30:47;5.53;;;5.00;;
14722;SDS011;7452;55.594;12.986;2023-04-06T12:33:14;6.57;;;5.10;;
14722;SDS011;7452;55.594;12.986;2023-04-06T12:35:41;6.87;;;4.77;;
14722;SDS011;7452;55.594;12.986;2023-04-06T12:38:08;6.97;;;4.93;;
14722;SDS011;7452;55.594;12.986;2023-04-06T12:40:36;5.13;;;4.63;;
14722;SDS011;7452;55.594;12.986;2023-04-06T12:43:06;7.70;;;4.90;;
14722;SDS011;7452;55.594;12.986;2023-04-06T12:45:33;5.43;;;4.67;;
14722;SDS011;7452;55.594;12.986;2023-04-06T12:48:00;4.90;;;4.17;;
14722;SDS011;7452;55.594;12.986;2023-04-06T12:50:27;4.60;;;4.20;;
14722;SDS011;7452;55.594;12.986;2023-04-06T12:52:54;5.77;;;4.33;;
14722;SDS011;7452;55.594;12.986;2023-04-06T12:55:22;4.83;;;4.33;;
14722;SDS011;7452;55.594;12.986;2023-04-06T12:57:48;6.33;;;4.30;;
14722;SDS011;7452;55.594;12.986;2023-04-06T13:00:20;7.70;;;4.80;;
14722;SDS011;7452;55.594;12.986;2023-04-06T13:02:48;5.30;;;4.10;;
14722;SDS011;7452;55.594;12.986;2023-04-06T13:05:16;4.63;;;4.13;;
14722;SDS011;7452;55.594;12.986;2023-04-06T13:07:44;4.97;;;4.43;;
14722;SDS011;7452;55.594;12.986;2023-04-06T13:10:12;5.80;;;4.20;;
14722;SDS011;7452;55.594;12.986;2023-04-06T13:12:39;4.47;;;4.07;;
14722;SDS011;7452;55.594;12.986;2023-04-06T13:15:07;4.50;;;3.87;;
14722;SDS011;7452;55.594;12.986;2023-04-06T13:17:36;6.10;;;4.13;;
14722;SDS011;7452;55.594;12.986;2023-04-06T13:20:03;7.87;;;4.10;;
14722;SDS011;7452;55.594;12.986;2023-04-06T13:22:31;6.50;;;4.33;;
14722;SDS011;7452;55.594;12.986;2023-04-06T13:24:58;6.33;;;4.40;;
14722;SDS011;7452;55.594;12.986;2023-04-06T13:27:25;5.57;;;4.50;;
14722;SDS011;7452;55.594;12.986;2023-04-06T13:29:53;7.47;;;4.33;;
14722;SDS011;7452;55.594;12.986;2023-04-06T13:32:21;6.30;;;4.80;;
14722;SDS011;7452;55.594;12.986;2023-04-06T13:34:50;7.27;;;5.00;;
14722;SDS011;7452;55.594;12.986;2023-04-06T13:37:20;7.40;;;4.43;;
14722;SDS011;7452;55.594;12.986;2023-04-06T13:39:47;11.17;;;5.03;;
14722;SDS011;7452;55.594;12.986;2023-04-06T13:42:14;6.33;;;4.00;;
14722;SDS011;7452;55.594;12.986;2023-04-06T13:44:40;5.80;;;4.13;;
14722;SDS011;7452;55.594;12.986;2023-04-06T13:47:07;7.07;;;4.63;;
14722;SDS011;7452;55.594;12.986;2023-04-06T13:49:34;6.20;;;4.80;;
14722;SDS011;7452;55.594;12.986;2023-04-06T13:52:03;5.60;;;4.53;;
14722;SDS011;7452;55.594;12.986;2023-04-06T13:54:30;5.70;;;4.33;;
14722;SDS011;7452;55.594;12.986;2023-04-06T13:56:57;5.87;;;4.63;;
14722;SDS011;7452;55.594;12.986;2023-04-06T13:59:24;5.90;;;4.67;;
14722;SDS011;7452;55.594;12.986;2023-04-06T14:01:50;5.83;;;4.23;;
14722;SDS011;7452;55.594;12.986;2023-04-06T14:04:17;6.80;;;4.33;;
14722;SDS011;7452;55.594;12.986;2023-04-06T14:06:44;4.70;;;4.23;;
14722;SDS011;7452;55.594;12.986;2023-04-06T14:09:13;5.43;;;4.93;;
14722;SDS011;7452;55.594;12.986;2023-04-06T14:11:40;4.77;;;4.33;;
14722;SDS011;7452;55.594;12.986;2023-04-06T14:14:07;5.37;;;4.87;;
14722;SDS011;7452;55.594;12.986;2023-04-06T14:16:34;8.03;;;5.00;;
14722;SDS011;7452;55.594;12.986;2023-04-06T14:19:01;8.40;;;5.20;;
14722;SDS011;7452;55.594;12.986;2023-04-06T14:21:28;7.97;;;5.03;;
14722;SDS011;7452;55.594;12.986;2023-04-06T14:23:56;5.40;;;4.90;;
14722;SDS011;7452;55.594;12.986;2023-04-06T14:26:24;5.97;;;5.40;;
14722;SDS011;7452;55.594;12.986;2023-04-06T14:28:53;6.33;;;4.80;;
14722;SDS011;7452;55.594;12.986;2023-04-06T14:31:20;6.90;;;4.60;;
14722;SDS011;7452;55.594;12.986;2023-04-06T14:33:47;5.83;;;4.80;;
14722;SDS011;7452;55.594;12.986;2023-04-06T14:36:14;5.77;;;4.60;;
14722;SDS011;7452;55.594;12.986;2023-04-06T14:38:41;7.27;;;5.00;;
14722;SDS011;7452;55.594;12.986;2023-04-06T14:41:09;5.97;;;4.53;;
14722;SDS011;7452;55.594;12.986;2023-04-06T14:43:42;7.40;;;4.40;;
14722;SDS011;7452;55.594;12.986;2023-04-06T14:46:09;6.57;;;5.23;;
14722;SDS011;7452;55.594;12.986;2023-04-06T14:48:36;4.93;;;4.40;;
14722;SDS011;7452;55.594;12.986;2023-04-06T14:51:03;4.97;;;4.20;;